Accueil
METAR-TAF:

METAR-TAF

Aéroports :

Dax, France

Seyresse

latitude: 43-41N, longitude: 001-04W, altitude: 32 m

Observation

Le bulletin a été fait il y a 1 heure et 2 minutes, à 08:00 UTC
Vent 4 kt de est/nord-est
Température 8°C
Humidité 71%
Pression 1019 hPa
Visibilité 10 km ou plus
pas de nuages en-dessous de 1500 mètres et pas de cumulonimbus.

METAR: LFBY 270800Z 06004KT CAVOK 08/03 Q1019

Heure: 11:02 (09:02 UTC)

Prévision

Le bulletin a été fait il y a 25 heures et 2 minutes, à 08:00 UTC
Prévision valable du 26 à 09 UTC au 26 à 18 UTC
Vent 10 kt de nord
Visibilité 10 km ou plus
Nuages épars à une hauteur de 1000 ft
Nuages fragmentés à une hauteur de 4000 ft
Temporairement
du 26 à 09 UTC au 26 à 15 UTC
Visibilité: 4000 m
pluie faible

TAF: LFBY 260800Z 2609/2618 35010KT 9999 SCT010 BKN040 TEMPO 2609/2615 4000 -RA

Observations et prévisions météorologiques de plus de 4000 aéroports (messages METAR et TAF).

Les stations disponibles sont représentées par des disques jaunes et rouges sur la carte.

Passer la souris dessus pour voir le nom de la station.

Cliquer dessus pour voir les observations et prévisions météorologiques.

Pour changer de carte: cliquez sur les boutons verts avec une croix noire pour zoomer, sur le bouton vert avec un tiret pour effectuer un zoom arrière, ou sur les flèches vertes pour les cartes adjacentes.


METAR-TAF: